Flight ASX315X

  • Submitted By: Krzysztof H. Blaszkow
  • Departure Airport: Szczecin (EPSC)
  • Arrival Airport: Gdansk im. Lecha Walesy (EPGD)
  • Aircraft: BE58 (SP-MVL)
  • Flight Time: 01.21.36
  • Date Submitted: 11/30/2016
  • Route: DCT KOSEX
  • Status: Accepted
Flight Details
Gross Revenue:
(5 load / € 55.00 per unit
€ 275.00
Fuel Cost:
(71.6676 fuel used @ 0.45 / unit)
€ 32.25

Additional Log Information:

View Log

[00:10] - Carenado BARON B58 METAL BLUE
[00:10] - Flight ASX315X is ready to depart EPSC with a final destination of EPGD.
[00:10] - Parking Brake Applied
[00:10] - Navigation Lights ON
[00:10] - Beacon Light ON
[00:10] - Instrument Lights ON
[00:10] - Recognition Lights ON
[00:10] - Logo Lights ON
[00:10] - Cabin Lights ON
[00:10] - Boarding
[00:10] - NAV1 - 114.75
[00:10] - NAV2 - 112.00
[00:10] - COM1 - 122.80
[00:10] - COM2 - 127.90
[00:10] - Transponder - 4531
[00:10] - ADF1 - 284.0
[00:10] - ADF2 - 240.0
[00:21] - Engine 1 Started
[00:21] - Engine 2 Started
[00:22] - Taxi Lights ON 3AGL
[00:22] - Parking Brake Released
[00:24] - Taxiing to Runway
[00:25] - Landing Lights ON 3AGL
[00:25] - Taxi Lights OFF 3AGL
[00:25] - Strobe Lights ON 3AGL
[00:26] - Flaps to position 1
[00:26] - Taking Off with 5 passengers on board
[00:26] - Take off at 103kts, with a pitch of 2deg and 378lbs of fuel on board
[00:26] - Wind Heading 248 | Wind Speed 11kts | Temperature 0 deg C
[00:26] - METAR Departure: EPSC 300000Z 23009KT 200V260 9999 FEW029 BKN041 M00/M05 Q1026

[00:26] - Gear up at 207AGL
[00:26] - Climbing to TOC
[00:27] - Flaps to position 0 at 827ft and 123kts
[00:32] - AutoPilot Engaged at 8536AGL
[00:32] - TOC reached
[00:32] - Cruise started
[00:50] - NAV2 - 116.10
[00:55] - NAV1 - 116.10
[01:03] - TOD reached
[01:03] - Descending to destination
[01:03] - Wing Lights ON 7192AGL
[01:03] - Wing Lights OFF 7139AGL
[01:03] - Wing Lights ON 7067AGL
[01:08] - Landing Shortly
[01:09] - NAV1 - 110.30
[01:16] - Flaps to position 1 at 2927ft and 144kts
[01:16] - Gear down at 2865AGL
[01:19] - AutoPilot Disengaged at 939AGL
[01:21] - Landed at -65fpm. With 225lbs of fuel onboard and a pitch angle of 3deg.
[01:21] - Wind Heading 247 | Wind Speed 13kts | Temperature 1 deg C
[01:21] - METAR Arrival: EPGD 300100Z 25013KT 9999 OVC008 02/01 Q1019 R11/290095

[01:21] - Flaps to position 0
[01:21] - Taxiing to Gate
[01:23] - Landing Lights OFF 0AGL
[01:23] - Taxi Lights ON 0AGL
[01:23] - Strobe Lights OFF 0AGL
[01:30] - Parking Brake Applied
[01:30] - Arrived safely at EPGD. We hope you enjoyed your flight!
[01:30] - Instrument Lights OFF 0AGL
[01:30] - Instrument Lights ON 0AGL
[01:30] - Taxi Lights OFF 0AGL
[01:30] - Wing Lights OFF 0AGL
[01:30] - Instrument Lights OFF 0AGL
[01:31] - Engine 1 Stopped
[01:31] - Engine 2 Stopped
[01:32] - Carenado BARON B58 METAL BLUE
[01:32] - MaxSim Rate: 1x
[01:32] - SiouxAcars ver: 1.0.1.2

Comments

Commenter Comment
Krzysztof H. Blaszkow Non rnav

Route Map